Time;durP1;ratioP1;P1;durP2;ratioP2;P2;SDS_P1;SDS_P2;PMS_P1;PMS_P2;Temp;Humidity;BMP_temperature;BMP_pressure;BME280_temperature;BME280_humidity;BME280_pressure;Samples;Min_cycle;Max_cycle;Signal;HPM_P1;HPM_P2
2024/01/08 00:00:18;;;;;;;;;;;;;;;-4.22;57.36;102374.56;4188147;28;20024;-70
2024/01/08 00:02:20;;;;;;;;;;;;;;;-4.19;57.36;102371.84;4188873;28;20011;-71
2024/01/08 00:04:22;;;;;;;;;;;;;;;-4.18;57.49;102376.22;4190744;28;20032;-71
2024/01/08 00:06:24;;;;;;;;;;;;;;;-4.22;57.09;102374.56;4190726;28;20036;-71
2024/01/08 00:08:25;;;;;;;;;;;;;;;-4.24;57.07;102373.75;4189874;28;20451;-71
2024/01/08 00:10:27;;;;;;;;;;;;;;;-4.25;57.22;102369.34;4190459;28;19983;-71
2024/01/08 00:12:30;;;;;;;;;;;;;;;-4.26;57.33;102375.56;4190715;28;20043;-71
2024/01/08 00:14:31;;;;;;;;;;;;;;;-4.29;56.95;102369.53;4189555;28;19950;-71
2024/01/08 00:16:33;;;;;;;;;;;;;;;-4.29;57.16;102366.88;4190428;28;19924;-71
2024/01/08 00:18:35;;;;;;;;;;;;;;;-4.35;57.17;102373.16;4190364;28;20008;-71
2024/01/08 00:20:37;;;;;;;;;;;;;;;-4.31;57.39;102373.94;4190453;28;20027;-71
2024/01/08 00:22:39;;;;;;;;;;;;;;;-4.33;57.60;102376.63;4189880;28;20369;-71
2024/01/08 00:24:41;;;;;;;;;;;;;;;-4.33;57.44;102373.13;4190177;28;20374;-71
2024/01/08 00:26:42;;;;;;;;;;;;;;;-4.38;57.24;102379.38;4190596;28;20031;-71
2024/01/08 00:28:45;;;;;;;;;;;;;;;-4.38;57.53;102378.53;4190429;28;19963;-71
2024/01/08 00:30:47;;;;;;;;;;;;;;;-4.41;57.35;102378.59;4190188;28;20454;-71
2024/01/08 00:32:50;;;;;;;;;;;;;;;-4.44;57.47;102381.31;4190142;28;20024;-71
2024/01/08 00:34:52;;;;;;;;;;;;;;;-4.46;57.49;102385.78;4189256;28;19936;-71
2024/01/08 00:36:54;;;;;;;;;;;;;;;-4.45;57.99;102376.94;4190015;28;20586;-71
2024/01/08 00:38:56;;;;;;;;;;;;;;;-4.44;57.84;102383.97;4190612;28;20016;-71
2024/01/08 00:40:58;;;;;;;;;;;;;;;-4.48;57.55;102379.66;4189651;28;20011;-71
2024/01/08 00:43:00;;;;;;;;;;;;;;;-4.47;57.80;102390.16;4189521;28;20370;-71
2024/01/08 00:45:03;;;;;;;;;;;;;;;-4.46;58.21;102388.41;4190014;28;20032;-71
2024/01/08 00:47:05;;;;;;;;;;;;;;;-4.46;57.95;102391.91;4189759;28;20019;-72
2024/01/08 00:49:07;;;;;;;;;;;;;;;-4.50;57.58;102390.25;4189926;28;20015;-71
2024/01/08 00:51:09;;;;;;;;;;;;;;;-4.52;57.84;102389.44;4189583;28;20027;-71
2024/01/08 00:53:11;;;;;;;;;;;;;;;-4.52;58.03;102382.38;4188654;28;20012;-71
2024/01/08 00:55:12;;;;;;;;;;;;;;;-4.53;57.95;102393.84;4189283;28;20376;-71
2024/01/08 00:57:14;;;;;;;;;;;;;;;-4.52;58.17;102394.69;4178659;28;19925;-71
2024/01/08 00:59:16;;;;;;;;;;;;;;;-4.50;58.21;102389.38;4189862;28;20372;-71
2024/01/08 01:01:20;;;;;;;;;;;;;;;-4.53;58.04;102395.59;4189402;28;20374;-71
2024/01/08 01:03:22;;;;;;;;;;;;;;;-4.52;58.24;102397.34;4188965;28;20027;-71
2024/01/08 01:05:24;;;;;;;;;;;;;;;-4.56;58.00;102393.94;4189451;28;20437;-71
2024/01/08 01:07:27;;;;;;;;;;;;;;;-4.56;57.84;102395.69;4189639;28;20350;-71
2024/01/08 01:09:29;;;;;;;;;;;;;;;-4.58;58.04;102403.63;4189496;28;20024;-72
2024/01/08 01:11:31;;;;;;;;;;;;;;;-4.59;57.98;102403.66;4189260;28;20050;-71
2024/01/08 01:13:33;;;;;;;;;;;;;;;-4.62;57.94;102402.00;4189837;28;20350;-71
2024/01/08 01:15:35;;;;;;;;;;;;;;;-4.64;58.02;102402.91;4189446;28;19935;-71
2024/01/08 01:17:37;;;;;;;;;;;;;;;-4.66;57.94;102405.59;4190239;28;20364;-71
2024/01/08 01:19:39;;;;;;;;;;;;;;;-4.67;58.05;102409.16;4189354;28;20008;-71
2024/01/08 01:21:41;;;;;;;;;;;;;;;-4.67;58.30;102410.91;4189407;28;20441;-70
2024/01/08 01:23:43;;;;;;;;;;;;;;;-4.64;58.53;102418.75;4188920;28;20027;-70
2024/01/08 01:25:45;;;;;;;;;;;;;;;-4.65;58.85;102415.25;4187860;28;20023;-71
2024/01/08 01:27:47;;;;;;;;;;;;;;;-4.64;58.57;102416.09;4189370;28;20007;-71
2024/01/08 01:29:49;;;;;;;;;;;;;;;-4.65;58.76;102412.59;4189217;28;20019;-71
2024/01/08 01:31:51;;;;;;;;;;;;;;;-4.69;58.32;102418.84;4189118;28;20449;-71
2024/01/08 01:33:54;;;;;;;;;;;;;;;-4.68;58.58;102423.22;4189254;28;20367;-71
2024/01/08 01:35:56;;;;;;;;;;;;;;;-4.69;58.45;102421.47;4189259;28;20426;-71
2024/01/08 01:37:58;;;;;;;;;;;;;;;-4.69;58.69;102421.47;4189899;28;20543;-70
2024/01/08 01:40:00;;;;;;;;;;;;;;;-4.68;58.79;102417.09;4189568;28;20353;-71
2024/01/08 01:42:02;;;;;;;;;;;;;;;-4.69;58.79;102429.41;4188936;28;20022;-70
2024/01/08 01:44:04;;;;;;;;;;;;;;;-4.72;58.47;102419.81;4189010;28;20011;-71
2024/01/08 01:46:07;;;;;;;;;;;;;;;-4.72;58.94;102424.19;4188778;28;20358;-71
2024/01/08 01:48:09;;;;;;;;;;;;;;;-4.73;58.68;102425.13;4188591;28;20016;-70
2024/01/08 01:50:13;;;;;;;;;;;;;;;-4.73;58.62;102425.13;4189316;28;20016;-71
2024/01/08 01:52:15;;;;;;;;;;;;;;;-4.75;58.53;102422.53;4189621;28;20028;-71
2024/01/08 01:54:17;;;;;;;;;;;;;;;-4.73;58.94;102425.97;4189103;28;20051;-71
2024/01/08 01:56:19;;;;;;;;;;;;;;;-4.74;58.99;102424.22;4189821;28;20383;-70
2024/01/08 01:58:21;;;;;;;;;;;;;;;-4.76;58.82;102431.31;4188675;28;20310;-71
2024/01/08 02:00:23;;;;;;;;;;;;;;;-4.76;58.94;102428.69;4188268;28;20032;-71
2024/01/08 02:02:27;;;;;;;;;;;;;;;-4.74;58.92;102431.28;4188537;28;20023;-71
2024/01/08 02:04:29;;;;;;;;;;;;;;;-4.77;58.63;102432.22;4188859;28;20457;-71
2024/01/08 02:06:32;;;;;;;;;;;;;;;-4.79;58.68;102431.41;4188288;28;20020;-70
2024/01/08 02:08:34;;;;;;;;;;;;;;;-4.80;58.77;102427.00;4188679;28;20689;-70
2024/01/08 02:10:39;;;;;;;;;;;;;;;-4.79;59.14;102436.66;4189102;28;20018;-71
2024/01/08 02:12:41;;;;;;;;;;;;;;;-4.79;59.00;102433.16;4188969;28;20027;-71
2024/01/08 02:14:43;;;;;;;;;;;;;;;-4.79;58.88;102430.53;4188281;28;20015;-72
2024/01/08 02:16:44;;;;;;;;;;;;;;;-4.81;58.93;102432.31;4188475;28;20011;-71
2024/01/08 02:18:47;;;;;;;;;;;;;;;-4.83;58.60;102426.22;4188803;28;19968;-71
2024/01/08 02:20:49;;;;;;;;;;;;;;;-4.85;58.35;102428.03;4188612;28;19959;-71
2024/01/08 02:22:51;;;;;;;;;;;;;;;-4.85;58.54;102431.53;4188389;28;20021;-71
2024/01/08 02:24:53;;;;;;;;;;;;;;;-4.90;58.33;102433.41;4188526;28;20027;-71
2024/01/08 02:26:55;;;;;;;;;;;;;;;-4.90;58.30;102439.56;4188455;28;20018;-71
2024/01/08 02:28:56;;;;;;;;;;;;;;;-4.93;58.39;102442.25;4178047;28;20349;-71
2024/01/08 02:30:58;;;;;;;;;;;;;;;-4.99;58.41;102442.38;4188435;28;19929;-71
2024/01/08 02:33:00;;;;;;;;;;;;;;;-4.93;58.99;102449.31;4188586;28;20004;-71
2024/01/08 02:35:02;;;;;;;;;;;;;;;-4.93;58.86;102452.78;4188799;28;20837;-71
2024/01/08 02:37:04;;;;;;;;;;;;;;;-4.95;58.62;102448.47;4188285;28;20023;-71
2024/01/08 02:39:07;;;;;;;;;;;;;;;-4.99;58.48;102449.44;4188711;28;20016;-71
2024/01/08 02:41:08;;;;;;;;;;;;;;;-4.96;59.10;102447.59;4188484;28;20019;-70
2024/01/08 02:43:10;;;;;;;;;;;;;;;-4.96;58.87;102444.97;4177787;28;20016;-71
2024/01/08 02:45:12;;;;;;;;;;;;;;;-4.96;58.75;102460.78;4177983;28;20387;-70
2024/01/08 02:47:14;;;;;;;;;;;;;;;-4.94;59.06;102461.63;4186715;28;20079;-71
2024/01/08 02:49:16;;;;;;;;;;;;;;;-4.95;58.91;102465.16;4188359;28;20016;-71
2024/01/08 02:51:18;;;;;;;;;;;;;;;-4.99;58.57;102465.25;4188281;28;20020;-71
2024/01/08 02:53:20;;;;;;;;;;;;;;;-4.94;58.92;102471.28;4188925;28;20047;-71
2024/01/08 02:55:24;;;;;;;;;;;;;;;-4.97;58.75;102482.78;4188303;28;20019;-71
2024/01/08 02:57:26;;;;;;;;;;;;;;;-4.99;58.81;102484.56;4188214;28;20461;-71
2024/01/08 02:59:28;;;;;;;;;;;;;;;-5.02;58.68;102481.13;4188038;28;20015;-71
2024/01/08 03:01:30;;;;;;;;;;;;;;;-5.01;58.86;102482.88;4187471;28;20456;-71
2024/01/08 03:03:32;;;;;;;;;;;;;;;-5.04;58.81;102493.47;4177801;28;20402;-71
2024/01/08 03:05:34;;;;;;;;;;;;;;;-5.04;58.81;102488.22;4177096;28;20432;-71
2024/01/08 03:07:36;;;;;;;;;;;;;;;-5.03;58.78;102487.28;4188362;28;20011;-71
2024/01/08 03:09:38;;;;;;;;;;;;;;;-5.04;58.59;102494.34;4187929;28;20016;-71
2024/01/08 03:11:41;;;;;;;;;;;;;;;-5.07;58.63;102497.91;4188920;28;20027;-71
2024/01/08 03:13:43;;;;;;;;;;;;;;;-5.06;58.75;102498.78;4188182;28;20024;-71
2024/01/08 03:15:45;;;;;;;;;;;;;;;-5.05;58.82;102497.88;4188001;28;20012;-71
2024/01/08 03:17:47;;;;;;;;;;;;;;;-5.08;58.75;102496.19;4187839;28;20541;-71
2024/01/08 03:19:49;;;;;;;;;;;;;;;-5.09;58.84;102499.72;4187782;28;20027;-71
2024/01/08 03:21:51;;;;;;;;;;;;;;;-5.10;58.92;102505.88;4187581;28;20027;-72
2024/01/08 03:23:53;;;;;;;;;;;;;;;-5.12;58.55;102504.19;4188137;28;20474;-72
2024/01/08 03:25:55;;;;;;;;;;;;;;;-5.15;58.44;102499.84;4188029;28;20016;-71
2024/01/08 03:27:59;;;;;;;;;;;;;;;-5.14;58.83;102500.69;4187766;28;20015;-71
2024/01/08 03:30:01;;;;;;;;;;;;;;;-5.13;58.75;102505.06;4188070;28;20466;-71
2024/01/08 03:32:02;;;;;;;;;;;;;;;-5.16;58.69;102505.13;4187497;28;20441;-71
2024/01/08 03:34:04;;;;;;;;;;;;;;;-5.17;58.77;102511.28;4187933;28;20019;-71
2024/01/08 03:36:09;;;;;;;;;;;;;;;-5.17;58.83;102517.44;4187802;28;20446;-71
2024/01/08 03:38:11;;;;;;;;;;;;;;;-5.18;59.19;102512.22;4187929;28;20022;-71
2024/01/08 03:40:12;;;;;;;;;;;;;;;-5.14;59.21;102527.03;4187621;28;19968;-72
2024/01/08 03:42:14;;;;;;;;;;;;;;;-5.15;58.94;102527.97;4174537;28;19970;-71
2024/01/08 03:44:17;;;;;;;;;;;;;;;-5.17;58.64;102529.72;4177603;28;20012;-71
2024/01/08 03:46:19;;;;;;;;;;;;;;;-5.18;58.74;102528.88;4187772;28;20039;-71
2024/01/08 03:48:20;;;;;;;;;;;;;;;-5.19;58.94;102536.81;4188760;28;20388;-72
2024/01/08 03:50:23;;;;;;;;;;;;;;;-5.17;59.62;102541.16;4190053;28;20015;-71
2024/01/08 03:52:24;;;;;;;;;;;;;;;-5.13;59.48;102536.69;4190178;28;20023;-71
2024/01/08 03:54:26;;;;;;;;;;;;;;;-5.13;59.05;102536.69;4189997;28;20031;-71
2024/01/08 03:56:28;;;;;;;;;;;;;;;-5.09;59.13;102549.78;4190797;28;20074;-71
2024/01/08 03:58:30;;;;;;;;;;;;;;;-5.11;58.25;102548.94;4190599;28;19929;-71
2024/01/08 04:00:34;;;;;;;;;;;;;;;-5.13;58.10;102547.22;4189963;28;20015;-71
2024/01/08 04:02:35;;;;;;;;;;;;;;;-5.09;58.62;102552.41;4190523;28;19967;-71
2024/01/08 04:04:37;;;;;;;;;;;;;;;-5.12;58.31;102547.19;4190663;28;19990;-71
2024/01/08 04:06:39;;;;;;;;;;;;;;;-5.11;58.33;102556.84;4190612;28;20034;-71
2024/01/08 04:08:41;;;;;;;;;;;;;;;-5.15;57.57;102557.78;4190694;28;20426;-71
2024/01/08 04:10:43;;;;;;;;;;;;;;;-5.13;58.00;102557.75;4190694;28;20457;-71
2024/01/08 04:12:44;;;;;;;;;;;;;;;-5.12;58.18;102563.00;4190798;28;20015;-71
2024/01/08 04:14:46;;;;;;;;;;;;;;;-5.15;57.63;102568.34;4190667;28;19951;-71
2024/01/08 04:16:49;;;;;;;;;;;;;;;-5.14;57.75;102564.81;4190110;28;20011;-71
2024/01/08 04:18:51;;;;;;;;;;;;;;;-5.12;57.63;102564.78;4190784;28;19928;-71
2024/01/08 04:20:54;;;;;;;;;;;;;;;-5.18;57.41;102565.75;4190138;28;20015;-71
2024/01/08 04:22:56;;;;;;;;;;;;;;;-5.17;57.59;102566.63;4190844;28;20023;-71
2024/01/08 04:24:56;;;;;;;;;;;;;;;-5.18;57.62;102568.41;4190702;28;20825;-71
2024/01/08 04:26:59;;;;;;;;;;;;;;;-5.19;57.49;102577.19;4190412;28;19928;-71
2024/01/08 04:29:00;;;;;;;;;;;;;;;-5.18;57.70;102573.66;4189820;28;20030;-71
2024/01/08 04:31:03;;;;;;;;;;;;;;;-5.18;57.62;102572.81;4189463;28;20476;-71
2024/01/08 04:33:06;;;;;;;;;;;;;;;-5.17;57.63;102579.78;4189417;28;20036;-71
2024/01/08 04:35:08;;;;;;;;;;;;;;;-5.22;57.38;102585.16;4190865;28;20015;-71
2024/01/08 04:37:10;;;;;;;;;;;;;;;-5.23;57.61;102585.19;4190105;28;20031;-71
2024/01/08 04:39:12;;;;;;;;;;;;;;;-5.20;57.71;102586.00;4190489;28;19931;-71
2024/01/08 04:41:17;;;;;;;;;;;;;;;-5.25;57.27;102586.09;4190136;28;20015;-71
2024/01/08 04:43:19;;;;;;;;;;;;;;;-5.25;57.44;102587.84;4189325;28;20015;-71
2024/01/08 04:45:21;;;;;;;;;;;;;;;-5.27;57.56;102589.66;4189783;28;20012;-71
2024/01/08 04:47:22;;;;;;;;;;;;;;;-5.27;57.37;102587.00;4189917;28;20028;-71
2024/01/08 04:49:25;;;;;;;;;;;;;;;-5.24;57.45;102597.50;4189851;28;20016;-71
2024/01/08 04:51:27;;;;;;;;;;;;;;;-5.23;57.52;102585.19;4189800;28;20016;-71
2024/01/08 04:53:29;;;;;;;;;;;;;;;-5.24;57.67;102594.84;4189767;28;20024;-71
2024/01/08 04:55:31;;;;;;;;;;;;;;;-5.26;57.13;102597.53;4190078;28;20471;-71
2024/01/08 04:57:33;;;;;;;;;;;;;;;-5.20;57.72;102611.47;4189617;28;20044;-71
2024/01/08 04:59:39;;;;;;;;;;;;;;;-5.16;57.44;102611.38;4190019;28;19928;-71
2024/01/08 05:01:41;;;;;;;;;;;;;;;-5.22;56.90;102606.22;4189916;28;20046;-71
2024/01/08 05:03:43;;;;;;;;;;;;;;;-5.21;57.10;102612.38;4189571;28;20015;-71
2024/01/08 05:05:46;;;;;;;;;;;;;;;-5.21;57.35;102602.69;4171667;28;20383;-71
2024/01/08 05:07:48;;;;;;;;;;;;;;;-5.17;57.80;102606.13;4189659;28;20032;-71
2024/01/08 05:09:50;;;;;;;;;;;;;;;-5.17;57.55;102614.03;4189059;28;20405;-71
2024/01/08 05:11:52;;;;;;;;;;;;;;;-5.19;57.27;102616.69;4189133;28;20007;-71
2024/01/08 05:13:54;;;;;;;;;;;;;;;-5.18;57.39;102615.81;4188956;28;20361;-71
2024/01/08 05:15:55;;;;;;;;;;;;;;;-5.17;57.27;102614.03;4188501;28;20027;-71
2024/01/08 05:18:00;;;;;;;;;;;;;;;-5.17;57.34;102614.94;4162716;28;19925;-71
2024/01/08 05:20:02;;;;;;;;;;;;;;;-5.17;57.19;102619.31;4188851;28;19929;-71
2024/01/08 05:22:06;;;;;;;;;;;;;;;-5.19;57.13;102623.75;4188619;28;20019;-71
2024/01/08 05:24:08;;;;;;;;;;;;;;;-5.20;57.23;102607.09;4189217;28;20052;-71
2024/01/08 05:26:10;;;;;;;;;;;;;;;-5.18;57.46;102622.88;4189060;28;20027;-71
2024/01/08 05:28:12;;;;;;;;;;;;;;;-5.17;57.42;102611.41;4188780;28;20384;-71
2024/01/08 05:30:15;;;;;;;;;;;;;;;-5.19;57.41;102624.59;4188582;28;20023;-71
2024/01/08 05:32:17;;;;;;;;;;;;;;;-5.20;57.50;102617.63;4189356;28;20019;-71
2024/01/08 05:34:19;;;;;;;;;;;;;;;-5.23;57.37;102619.41;4188729;28;20386;-71
2024/01/08 05:36:22;;;;;;;;;;;;;;;-5.23;57.61;102615.03;4188461;28;20023;-71
2024/01/08 05:38:28;;;;;;;;;;;;;;;-5.20;57.88;102622.88;4187436;28;20048;-70
2024/01/08 05:40:29;;;;;;;;;;;;;;;-5.21;57.58;102623.78;4170950;28;19924;-72
2024/01/08 05:42:31;;;;;;;;;;;;;;;-5.20;57.75;102622.00;4177397;28;20019;-72
2024/01/08 05:44:33;;;;;;;;;;;;;;;-5.18;57.94;102622.88;4189002;28;20036;-72
2024/01/08 05:46:35;;;;;;;;;;;;;;;-5.22;57.65;102615.91;4188126;28;20011;-71
2024/01/08 05:48:37;;;;;;;;;;;;;;;-5.19;57.98;102629.00;4188184;28;20015;-71
2024/01/08 05:50:39;;;;;;;;;;;;;;;-5.22;57.80;102624.66;4188536;28;20027;-72
2024/01/08 05:52:41;;;;;;;;;;;;;;;-5.22;57.99;102629.94;4188438;28;20039;-72
2024/01/08 05:54:44;;;;;;;;;;;;;;;-5.21;58.17;102628.19;4188862;28;20015;-72
2024/01/08 05:56:46;;;;;;;;;;;;;;;-5.20;58.32;102630.78;4189144;28;20429;-72
2024/01/08 05:58:47;;;;;;;;;;;;;;;-5.27;57.84;102631.78;4189001;28;20019;-71
2024/01/08 06:00:49;;;;;;;;;;;;;;;-5.27;57.94;102639.69;4188321;28;20018;-71
2024/01/08 06:02:51;;;;;;;;;;;;;;;-5.29;58.27;102637.09;4188921;28;20031;-71
2024/01/08 06:04:53;;;;;;;;;;;;;;;-5.27;58.44;102644.97;4188549;28;20454;-71
2024/01/08 06:06:56;;;;;;;;;;;;;;;-5.30;58.16;102640.63;4188185;28;20031;-71
2024/01/08 06:08:58;;;;;;;;;;;;;;;-5.33;58.57;102645.97;4188202;28;20031;-71
2024/01/08 06:11:01;;;;;;;;;;;;;;;-5.26;59.02;102649.34;4189059;28;20028;-72
2024/01/08 06:13:02;;;;;;;;;;;;;;;-5.24;58.91;102647.53;4188322;28;20445;-72
2024/01/08 06:15:05;;;;;;;;;;;;;;;-5.23;58.58;102656.31;4188439;28;20031;-72
2024/01/08 06:17:07;;;;;;;;;;;;;;;-5.26;58.72;102654.63;4188761;28;20096;-72
2024/01/08 06:19:09;;;;;;;;;;;;;;;-5.24;58.76;102663.34;4188419;28;20031;-72
2024/01/08 06:21:12;;;;;;;;;;;;;;;-5.24;58.93;102665.97;4188597;28;20578;-71
2024/01/08 06:23:13;;;;;;;;;;;;;;;-5.21;59.09;102665.94;4188605;28;20024;-72
2024/01/08 06:25:15;;;;;;;;;;;;;;;-5.22;59.03;102666.81;4188456;28;20023;-71
2024/01/08 06:27:19;;;;;;;;;;;;;;;-5.23;58.97;102669.47;4188371;28;20024;-71
2024/01/08 06:29:21;;;;;;;;;;;;;;;-5.24;59.10;102676.53;4189062;28;20015;-71
2024/01/08 06:31:23;;;;;;;;;;;;;;;-5.24;59.25;102676.53;4187879;28;20019;-71
2024/01/08 06:33:25;;;;;;;;;;;;;;;-5.29;59.01;102681.00;4188275;28;20021;-72
2024/01/08 06:35:27;;;;;;;;;;;;;;;-5.27;59.28;102682.72;4169911;28;20406;-71
2024/01/08 06:37:27;;;;;;;;;;;;;;;-5.28;59.26;102683.63;4188357;28;20020;-71
2024/01/08 06:39:29;;;;;;;;;;;;;;;-5.29;59.42;102686.28;4188637;28;20348;-71
2024/01/08 06:41:30;;;;;;;;;;;;;;;-5.29;59.53;102688.91;4187979;28;20592;-72
2024/01/08 06:43:34;;;;;;;;;;;;;;;-5.30;59.79;102684.53;4188635;28;20024;-72
2024/01/08 06:45:36;;;;;;;;;;;;;;;-5.33;59.46;102700.38;4187904;28;20032;-71
2024/01/08 06:47:38;;;;;;;;;;;;;;;-5.35;59.68;102700.41;4188151;28;20090;-72
2024/01/08 06:49:40;;;;;;;;;;;;;;;-5.36;59.76;102703.06;4187884;28;20011;-72
2024/01/08 06:51:42;;;;;;;;;;;;;;;-5.39;59.79;102692.59;4188176;28;20403;-72
2024/01/08 06:53:43;;;;;;;;;;;;;;;-5.35;59.97;102697.78;4187795;28;20015;-72
2024/01/08 06:55:45;;;;;;;;;;;;;;;-5.34;59.98;102696.91;4187702;28;20372;-71
2024/01/08 06:57:49;;;;;;;;;;;;;;;-5.38;59.91;102699.59;4188057;28;20007;-72
2024/01/08 06:59:52;;;;;;;;;;;;;;;-5.37;60.22;102712.75;4188780;28;20023;-72
2024/01/08 07:01:54;;;;;;;;;;;;;;;-5.35;60.45;102716.22;4187481;28;19959;-72
2024/01/08 07:03:56;;;;;;;;;;;;;;;-5.36;60.44;102713.59;4188332;28;20020;-72
2024/01/08 07:05:58;;;;;;;;;;;;;;;-5.39;60.39;102725.09;4188229;28;20015;-72
2024/01/08 07:08:00;;;;;;;;;;;;;;;-5.41;60.59;102724.22;4188006;28;20056;-72
2024/01/08 07:10:02;;;;;;;;;;;;;;;-5.44;60.40;102730.44;4193071;28;20016;-72
2024/01/08 07:12:05;;;;;;;;;;;;;;;-5.43;60.80;102734.78;4186492;28;20031;-72
2024/01/08 07:14:07;;;;;;;;;;;;;;;-5.40;61.04;102736.50;4187465;28;20471;-71
2024/01/08 07:16:10;;;;;;;;;;;;;;;-5.40;61.04;102731.22;4187565;28;20011;-71
2024/01/08 07:18:12;;;;;;;;;;;;;;;-5.39;61.35;102734.72;4187504;28;20229;-71
2024/01/08 07:20:15;;;;;;;;;;;;;;;-5.36;61.54;102737.31;4186924;28;20015;-71
2024/01/08 07:22:17;;;;;;;;;;;;;;;-5.37;61.35;102738.22;4187162;28;20031;-71
2024/01/08 07:24:19;;;;;;;;;;;;;;;-5.39;61.26;102742.63;4188360;28;20021;-71
2024/01/08 07:26:21;;;;;;;;;;;;;;;-5.41;61.29;102744.44;4191953;28;20063;-71
2024/01/08 07:28:22;;;;;;;;;;;;;;;-5.45;61.26;102741.84;4180300;28;20036;-71
2024/01/08 07:30:25;;;;;;;;;;;;;;;-5.43;61.60;102741.81;4190472;28;19928;-72
2024/01/08 07:32:28;;;;;;;;;;;;;;;-5.41;61.75;102741.78;4185839;28;20011;-72
2024/01/08 07:34:30;;;;;;;;;;;;;;;-5.40;61.82;102740.91;4188140;28;20405;-72
2024/01/08 07:36:32;;;;;;;;;;;;;;;-5.41;61.99;102742.66;4188293;28;20446;-72
2024/01/08 07:38:34;;;;;;;;;;;;;;;-5.40;62.05;102761.97;4187973;28;20028;-71
2024/01/08 07:40:36;;;;;;;;;;;;;;;-5.44;62.03;102751.50;4189721;28;20478;-72
2024/01/08 07:42:38;;;;;;;;;;;;;;;-5.46;61.99;102752.41;4190784;28;19928;-72
2024/01/08 07:44:40;;;;;;;;;;;;;;;-5.45;61.99;102759.41;4191517;28;20442;-72
2024/01/08 07:46:42;;;;;;;;;;;;;;;-5.44;62.04;102761.13;4191265;28;20032;-72
2024/01/08 07:48:46;;;;;;;;;;;;;;;-5.48;61.90;102770.84;4190633;28;20015;-71
2024/01/08 07:50:47;;;;;;;;;;;;;;;-5.45;62.42;102770.81;4190477;28;20366;-72
2024/01/08 07:52:49;;;;;;;;;;;;;;;-5.41;62.57;102773.41;4196205;28;20433;-71
2024/01/08 07:54:51;;;;;;;;;;;;;;;-5.40;62.56;102769.88;4190752;28;20031;-71
2024/01/08 07:56:53;;;;;;;;;;;;;;;-5.37;62.98;102768.06;4191191;28;20027;-71
2024/01/08 07:58:55;;;;;;;;;;;;;;;-5.34;63.00;102781.19;4190434;28;20600;-72
2024/01/08 08:00:56;;;;;;;;;;;;;;;-5.33;62.80;102771.50;4190166;28;20016;-72
2024/01/08 08:02:58;;;;;;;;;;;;;;;-5.35;62.69;102778.56;4190866;28;19924;-72
2024/01/08 08:05:02;;;;;;;;;;;;;;;-5.39;62.70;102780.38;4190709;28;20028;-72
2024/01/08 08:07:04;;;;;;;;;;;;;;;-5.39;62.89;102784.75;4190736;28;20019;-71
2024/01/08 08:09:06;;;;;;;;;;;;;;;-5.39;63.16;102785.66;4190871;28;20449;-71
2024/01/08 08:11:08;;;;;;;;;;;;;;;-5.37;63.23;102789.13;4190457;28;20015;-72
2024/01/08 08:13:10;;;;;;;;;;;;;;;-5.37;62.96;102789.13;4190198;28;20399;-72
2024/01/08 08:15:12;;;;;;;;;;;;;;;-5.38;63.07;102807.59;4190340;28;20019;-72
2024/01/08 08:17:14;;;;;;;;;;;;;;;-5.35;63.18;102805.75;4190194;28;20019;-71
2024/01/08 08:19:16;;;;;;;;;;;;;;;-5.32;63.30;102804.84;4190020;28;20020;-71
2024/01/08 08:21:20;;;;;;;;;;;;;;;-5.30;63.44;102814.50;4189927;28;20830;-71
2024/01/08 08:23:24;;;;;;;;;;;;;;;-5.30;63.33;102818.88;4195395;28;19935;-71
2024/01/08 08:25:26;;;;;;;;;;;;;;;-5.24;63.46;102821.41;4189746;28;20016;-72
2024/01/08 08:27:27;;;;;;;;;;;;;;;-5.22;63.39;102826.66;4189520;28;20774;-72
2024/01/08 08:29:29;;;;;;;;;;;;;;;-5.23;63.34;102824.91;4189725;28;20039;-72
2024/01/08 08:31:31;;;;;;;;;;;;;;;-5.19;63.45;102826.59;4189791;28;20830;-72
2024/01/08 08:33:33;;;;;;;;;;;;;;;-5.18;63.49;102828.34;4189876;28;20016;-72
2024/01/08 08:35:36;;;;;;;;;;;;;;;-5.14;63.55;102836.19;4171491;28;20020;-72
2024/01/08 08:37:39;;;;;;;;;;;;;;;-5.10;63.59;102837.00;4189999;28;20059;-72
2024/01/08 08:39:40;;;;;;;;;;;;;;;-5.09;63.44;102844.03;4190099;28;20024;-72
2024/01/08 08:41:43;;;;;;;;;;;;;;;-5.07;63.37;102844.88;4189763;28;19928;-72
2024/01/08 08:43:45;;;;;;;;;;;;;;;-5.04;63.25;102851.84;4189709;28;19929;-72
2024/01/08 08:45:47;;;;;;;;;;;;;;;-4.99;63.45;102855.28;4189780;28;20032;-72
2024/01/08 08:47:48;;;;;;;;;;;;;;;-4.98;63.23;102860.53;4188985;28;20020;-72
2024/01/08 08:49:50;;;;;;;;;;;;;;;-4.93;63.38;102868.38;4189648;28;20596;-72
2024/01/08 08:51:52;;;;;;;;;;;;;;;-4.90;63.41;102861.28;4189212;28;20023;-72
2024/01/08 08:53:54;;;;;;;;;;;;;;;-4.88;63.29;102862.09;4189639;28;20059;-71
2024/01/08 08:55:57;;;;;;;;;;;;;;;-4.84;63.41;102867.31;4189071;28;20020;-72
2024/01/08 08:57:58;;;;;;;;;;;;;;;-4.80;63.45;102869.03;4189583;28;20012;-72
2024/01/08 09:00:00;;;;;;;;;;;;;;;-4.77;63.32;102867.19;4189469;28;20016;-71
2024/01/08 09:02:02;;;;;;;;;;;;;;;-4.76;63.12;102868.94;4189020;28;19939;-72
2024/01/08 09:04:04;;;;;;;;;;;;;;;-4.71;63.18;102871.50;4170088;28;20493;-72
2024/01/08 09:06:06;;;;;;;;;;;;;;;-4.66;63.41;102874.06;4189064;28;20024;-71
2024/01/08 09:08:09;;;;;;;;;;;;;;;-4.61;63.32;102872.22;4188338;28;20023;-72
2024/01/08 09:10:12;;;;;;;;;;;;;;;-4.57;63.35;102869.50;4172557;28;20039;-72
2024/01/08 09:12:14;;;;;;;;;;;;;;;-4.52;63.23;102872.06;4188874;28;20026;-72
2024/01/08 09:14:16;;;;;;;;;;;;;;;-4.49;62.98;102868.50;4189285;28;20016;-71
2024/01/08 09:16:18;;;;;;;;;;;;;;;-4.43;63.01;102877.19;4189320;28;20023;-72
2024/01/08 09:18:21;;;;;;;;;;;;;;;-4.36;63.08;102880.56;4189141;28;19960;-72
2024/01/08 09:20:23;;;;;;;;;;;;;;;-4.30;63.05;102882.22;4188707;28;20022;-71
2024/01/08 09:22:24;;;;;;;;;;;;;;;-4.25;63.04;102880.38;4188893;28;20035;-72
2024/01/08 09:24:26;;;;;;;;;;;;;;;-4.21;62.62;102882.06;4188650;28;19979;-72
2024/01/08 09:26:29;;;;;;;;;;;;;;;-4.16;62.37;102888.13;4188715;28;20024;-72
2024/01/08 09:28:31;;;;;;;;;;;;;;;-4.14;61.83;102888.09;4189133;28;20024;-72
2024/01/08 09:30:33;;;;;;;;;;;;;;;-4.09;61.89;102895.03;4188384;28;20011;-72
2024/01/08 09:32:35;;;;;;;;;;;;;;;-4.02;62.01;102898.41;4188658;28;20465;-71
2024/01/08 09:34:38;;;;;;;;;;;;;;;-3.99;61.47;102893.06;4189162;28;20487;-71
2024/01/08 09:36:40;;;;;;;;;;;;;;;-3.96;61.23;102892.16;4188404;28;20055;-71
2024/01/08 09:38:41;;;;;;;;;;;;;;;-3.89;61.50;102891.13;4189423;28;20031;-72
2024/01/08 09:40:43;;;;;;;;;;;;;;;-3.82;61.52;102890.09;4188281;28;20581;-71
2024/01/08 09:42:46;;;;;;;;;;;;;;;-3.78;61.07;102890.91;4188527;28;20016;-71
2024/01/08 09:44:48;;;;;;;;;;;;;;;-3.74;60.70;102896.09;4187134;28;20401;-71
2024/01/08 09:46:51;;;;;;;;;;;;;;;-3.68;60.82;102898.63;4188083;28;20071;-71
2024/01/08 09:48:53;;;;;;;;;;;;;;;-3.64;60.62;102897.66;4188249;28;20023;-71
2024/01/08 09:50:55;;;;;;;;;;;;;;;-3.59;60.34;102897.53;4188667;28;20016;-71
2024/01/08 09:52:57;;;;;;;;;;;;;;;-3.56;59.98;102900.09;4188581;28;20015;-71
2024/01/08 09:54:59;;;;;;;;;;;;;;;-3.50;59.87;102907.03;4188626;28;20027;-72
2024/01/08 09:57:03;;;;;;;;;;;;;;;-3.46;59.95;102904.31;4188762;28;20003;-71
2024/01/08 09:59:06;;;;;;;;;;;;;;;-3.40;60.17;102905.97;4188499;28;20044;-72
2024/01/08 10:01:07;;;;;;;;;;;;;;;-3.35;60.08;102897.94;4188436;28;20349;-71
2024/01/08 10:03:09;;;;;;;;;;;;;;;-3.32;60.17;102900.50;4188292;28;19924;-71
2024/01/08 10:05:11;;;;;;;;;;;;;;;-3.27;60.15;102898.63;4187546;28;19963;-71
2024/01/08 10:07:14;;;;;;;;;;;;;;;-3.22;59.89;102898.53;4189224;28;20019;-71
2024/01/08 10:09:15;;;;;;;;;;;;;;;-3.18;59.68;102903.69;4188468;28;20011;-71
2024/01/08 10:11:18;;;;;;;;;;;;;;;-3.13;59.69;102900.97;4188621;28;20027;-71
2024/01/08 10:13:20;;;;;;;;;;;;;;;-3.09;59.48;102899.97;4188352;28;20017;-72
2024/01/08 10:15:23;;;;;;;;;;;;;;;-3.04;59.07;102891.94;4187911;28;20461;-71
2024/01/08 10:17:25;;;;;;;;;;;;;;;-2.99;59.40;102898.84;4188489;28;20031;-71
2024/01/08 10:19:27;;;;;;;;;;;;;;;-2.95;59.39;102897.84;4187641;28;20020;-72
2024/01/08 10:21:30;;;;;;;;;;;;;;;-2.92;58.85;102897.78;4187630;28;20039;-71
2024/01/08 10:23:31;;;;;;;;;;;;;;;-2.85;59.08;102895.00;4187739;28;20011;-72
2024/01/08 10:25:33;;;;;;;;;;;;;;;-2.79;59.37;102900.13;4188313;28;20481;-71